sim
Sign-in with your pilot id or email,
or register
Callsign
Passwort

Schedule Details

Flight Number: DLH2505 (1)
Departure: Manchester Airport (EGCC) at 06:25
Arrival: Munich Airport (EDDM) at 08:20
Route: Lufthansa Passenger Schedule. Enter filed route here before submitting Pirep.

Weather Information
Getting current METAR information for EGCC 201650Z AUTO 10004KT 020V180 9999 NCD 16/09 Q1021 NOSIG
Getting current METAR information for EDDM 201650Z 04003KT 350V050 CAVOK 20/11 Q1015 NOSIG

Schedule Frequency

Route Map